Time;durP1;ratioP1;P1;durP2;ratioP2;P2;SDS_P1;SDS_P2;PMS_P1;PMS_P2;Temp;Humidity;BMP_temperature;BMP_pressure;BME280_temperature;BME280_humidity;BME280_pressure;Samples;Min_cycle;Max_cycle;Signal;HPM_P1;HPM_P2
2021/12/19 00:00:51;;;;;;;15.10;7.20;;;;;;;3.65;83.00;99336.35;105246;1320;22741;-76
2021/12/19 00:03:50;;;;;;;9.40;5.70;;;;;;;3.72;83.11;99335.82;105250;1321;22732;-76
2021/12/19 00:09:05;;;;;;;6.90;4.30;;;;;;;3.72;83.58;99329.77;105271;1322;22648;-76
2021/12/19 00:11:33;;;;;;;24.60;10.10;;;;;;;3.70;83.42;99327.59;105246;1322;24423;-76
2021/12/19 00:14:02;;;;;;;9.10;5.20;;;;;;;3.69;83.48;99324.34;105573;1322;22603;-77
2021/12/19 00:16:29;;;;;;;10.30;5.50;;;;;;;3.66;83.18;99320.29;105228;1322;22597;-76
2021/12/19 00:18:57;;;;;;;21.90;9.40;;;;;;;3.67;83.08;99316.82;105593;1322;22758;-77
2021/12/19 00:21:27;;;;;;;10.10;6.00;;;;;;;3.71;83.55;99311.21;105288;1322;22594;-77
2021/12/19 00:23:55;;;;;;;11.20;5.80;;;;;;;3.71;83.63;99313.27;105174;1323;22910;-76
2021/12/19 00:26:22;;;;;;;10.70;5.70;;;;;;;3.71;83.93;99310.52;105292;1323;22769;-77
2021/12/19 00:28:50;;;;;;;12.90;6.50;;;;;;;3.71;84.13;99303.45;105207;1322;22649;-78
2021/12/19 00:31:18;;;;;;;11.90;6.30;;;;;;;3.69;84.05;99299.70;105251;1323;22707;-76
2021/12/19 00:33:45;;;;;;;10.90;6.10;;;;;;;3.66;83.93;99300.48;105289;1323;22593;-76
2021/12/19 00:36:13;;;;;;;15.20;7.70;;;;;;;3.64;83.68;99293.30;105230;1322;22565;-76
2021/12/19 00:38:40;;;;;;;13.90;6.80;;;;;;;3.68;84.02;99284.58;105260;1323;23951;-77
2021/12/19 00:41:09;;;;;;;11.70;6.90;;;;;;;3.70;84.10;99286.95;105243;1323;25392;-77
2021/12/19 00:43:53;;;;;;;14.10;7.60;;;;;;;3.67;84.29;99288.04;105293;1322;22673;-77
2021/12/19 00:46:23;;;;;;;16.00;7.70;;;;;;;3.66;84.49;99290.33;105277;1322;23776;-77
2021/12/19 00:48:54;;;;;;;19.30;10.20;;;;;;;3.60;84.18;99288.41;105271;1322;22755;-78
2021/12/19 00:51:25;;;;;;;19.30;9.00;;;;;;;3.58;84.29;99292.13;105250;1322;23458;-77
2021/12/19 00:53:54;;;;;;;17.90;9.30;;;;;;;3.57;84.12;99291.59;105276;1323;22670;-77
2021/12/19 00:56:22;;;;;;;18.20;9.70;;;;;;;3.56;84.32;99291.65;105282;1323;22686;-77
2021/12/19 00:58:49;;;;;;;19.90;10.40;;;;;;;3.54;84.33;99290.13;105246;1322;22863;-77
2021/12/19 01:01:17;;;;;;;24.10;10.80;;;;;;;3.55;84.93;99283.58;105264;1322;22684;-76
2021/12/19 01:03:46;;;;;;;19.00;9.80;;;;;;;3.50;84.66;99281.10;105169;1323;22652;-77
2021/12/19 01:06:17;;;;;;;20.00;9.20;;;;;;;3.48;84.69;99267.06;105301;1323;22659;-76
2021/12/19 01:08:46;;;;;;;29.30;11.40;;;;;;;3.46;84.38;99260.56;105293;1322;22701;-76
2021/12/19 01:11:13;;;;;;;20.30;10.70;;;;;;;3.42;84.46;99248.42;105299;1321;22752;-77
2021/12/19 01:13:40;;;;;;;31.20;14.30;;;;;;;3.41;84.73;99242.08;105258;1322;22927;-76
2021/12/19 01:16:07;;;;;;;24.90;12.00;;;;;;;3.43;84.89;99244.45;105287;1322;23193;-79
2021/12/19 01:18:34;;;;;;;30.70;13.50;;;;;;;3.41;85.33;99239.15;105316;1322;22850;-77
2021/12/19 01:21:01;;;;;;;23.60;11.00;;;;;;;3.37;85.34;99240.14;105326;1319;22769;-77
2021/12/19 01:23:28;;;;;;;49.30;18.40;;;;;;;3.35;85.37;99232.59;105328;1321;22681;-77
2021/12/19 01:25:55;;;;;;;41.10;15.60;;;;;;;3.30;85.29;99226.90;105308;1322;22675;-78
2021/12/19 01:28:23;;;;;;;23.30;11.30;;;;;;;3.29;85.00;99225.04;105295;1320;22682;-78
2021/12/19 01:30:50;;;;;;;53.10;20.00;;;;;;;3.31;85.14;99221.88;105332;1321;23142;-77
2021/12/19 01:33:17;;;;;;;20.40;10.70;;;;;;;3.29;85.42;99212.45;105302;1321;22914;-78
2021/12/19 01:35:44;;;;;;;29.20;13.90;;;;;;;3.29;85.50;99202.13;105309;1322;22656;-77
2021/12/19 01:38:11;;;;;;;16.70;9.60;;;;;;;3.30;85.77;99195.38;105282;1322;22813;-77
2021/12/19 01:40:38;;;;;;;16.70;9.10;;;;;;;3.27;85.87;99188.58;105290;1322;22585;-77
2021/12/19 01:43:06;;;;;;;14.20;8.50;;;;;;;3.23;85.74;99186.11;105299;1321;22768;-77
2021/12/19 01:45:39;;;;;;;17.80;10.30;;;;;;;3.20;85.49;99186.18;105334;1320;22662;-77
2021/12/19 01:48:10;;;;;;;18.70;10.60;;;;;;;3.21;85.71;99187.55;105311;1322;22665;-78
2021/12/19 01:50:39;;;;;;;27.20;12.50;;;;;;;3.21;85.76;99188.90;105285;1322;23544;-77
2021/12/19 01:53:10;;;;;;;16.90;9.80;;;;;;;3.24;86.01;99186.75;105289;1321;22645;-77
2021/12/19 01:55:40;;;;;;;24.90;12.30;;;;;;;3.23;86.21;99186.77;105314;1319;23069;-77
2021/12/19 01:58:07;;;;;;;19.30;9.40;;;;;;;3.23;86.14;99183.00;105321;1321;22652;-77
2021/12/19 02:00:39;;;;;;;15.90;9.30;;;;;;;3.19;86.22;99174.34;105370;1321;23208;-77
2021/12/19 02:03:08;;;;;;;15.70;8.90;;;;;;;3.20;86.02;99168.48;105335;1321;22587;-77
2021/12/19 02:05:36;;;;;;;56.00;24.40;;;;;;;3.20;85.97;99160.72;105321;1320;22676;-79
2021/12/19 02:08:05;;;;;;;16.60;9.50;;;;;;;3.23;86.26;99157.35;105322;1320;22633;-77
2021/12/19 02:10:33;;;;;;;16.40;9.40;;;;;;;3.25;86.36;99155.58;105314;1321;24220;-77
2021/12/19 02:13:02;;;;;;;13.10;7.90;;;;;;;3.24;86.38;99152.33;105322;1320;22610;-76
2021/12/19 02:15:30;;;;;;;15.20;8.40;;;;;;;3.22;86.45;99149.83;105296;1321;22896;-76
2021/12/19 02:18:01;;;;;;;27.40;13.30;;;;;;;3.18;86.29;99144.23;105269;1322;22602;-77
2021/12/19 02:20:38;;;;;;;18.40;10.50;;;;;;;3.19;86.16;99143.89;105288;1322;22585;-77
2021/12/19 02:23:06;;;;;;;17.40;10.30;;;;;;;3.21;86.03;99137.10;105311;1321;24274;-78
2021/12/19 02:25:33;;;;;;;18.70;10.40;;;;;;;3.24;86.13;99122.90;105311;1322;23113;-77
2021/12/19 02:28:01;;;;;;;21.10;11.90;;;;;;;3.25;86.30;99110.66;105314;1322;22671;-77
2021/12/19 02:30:29;;;;;;;18.30;10.70;;;;;;;3.24;86.61;99110.32;105318;1322;23631;-77
2021/12/19 02:32:56;;;;;;;20.00;10.60;;;;;;;3.22;86.57;99107.99;105341;1320;22663;-77
2021/12/19 02:35:28;;;;;;;19.00;10.50;;;;;;;3.21;86.38;99101.31;105299;1322;22850;-77
2021/12/19 02:38:27;;;;;;;16.50;9.10;;;;;;;3.21;85.99;99094.27;105288;1322;23500;-77
2021/12/19 02:49:26;;;;;;;19.70;10.90;;;;;;;3.22;86.69;99083.02;105296;1322;22805;-77
2021/12/19 02:51:54;;;;;;;19.30;11.10;;;;;;;3.18;86.29;99075.94;105274;1319;23119;-77
2021/12/19 02:54:22;;;;;;;17.80;11.00;;;;;;;3.17;86.36;99064.76;105307;1322;22581;-76
2021/12/19 02:56:51;;;;;;;18.10;11.00;;;;;;;3.19;86.27;99061.79;105300;1321;22583;-77
2021/12/19 02:59:19;;;;;;;17.80;11.00;;;;;;;3.21;86.12;99059.66;105571;1322;22623;-77
2021/12/19 03:01:46;;;;;;;16.70;11.10;;;;;;;3.21;86.64;99058.26;105291;1321;22597;-77
2021/12/19 03:04:14;;;;;;;16.30;9.80;;;;;;;3.21;86.86;99048.48;105332;1322;22680;-78
2021/12/19 03:06:45;;;;;;;17.00;10.30;;;;;;;3.21;86.72;99046.05;105366;1322;22779;-76
2021/12/19 03:09:17;;;;;;;15.50;9.80;;;;;;;3.18;86.49;99037.88;105307;1316;25398;-77
2021/12/19 03:12:58;;;;;;;15.80;9.90;;;;;;;3.16;86.42;99027.61;105284;1322;22630;-78
2021/12/19 03:20:12;;;;;;;16.10;10.10;;;;;;;3.16;86.78;99002.99;105303;1321;25346;-77
2021/12/19 03:22:39;;;;;;;14.00;8.50;;;;;;;3.13;86.88;98997.40;105298;1322;22589;-77
2021/12/19 03:25:07;;;;;;;17.50;9.80;;;;;;;3.12;86.62;98981.98;105314;1322;24107;-77
2021/12/19 03:27:34;;;;;;;17.40;10.30;;;;;;;3.11;86.52;98974.26;105280;1319;22907;-78
2021/12/19 03:30:01;;;;;;;17.00;10.30;;;;;;;3.15;86.47;98973.27;105220;1322;22875;-75
2021/12/19 03:32:28;;;;;;;18.20;10.20;;;;;;;3.16;86.73;98970.80;105255;1322;22753;-76
2021/12/19 03:34:55;;;;;;;16.80;10.20;;;;;;;3.15;86.81;98959.13;105290;1322;22651;-77
2021/12/19 03:37:22;;;;;;;14.70;10.20;;;;;;;3.16;87.05;98956.89;105252;1322;22679;-77
2021/12/19 03:40:09;;;;;;;16.80;10.20;;;;;;;3.12;86.93;98958.91;105230;1322;22636;-76
2021/12/19 03:42:40;;;;;;;18.30;11.00;;;;;;;3.09;86.64;98957.09;105270;1321;22642;-77
2021/12/19 03:45:11;;;;;;;19.70;11.60;;;;;;;3.08;86.65;98946.98;105253;1322;22690;-77
2021/12/19 03:47:39;;;;;;;21.00;13.00;;;;;;;3.12;86.61;98933.45;105262;1322;22655;-77
2021/12/19 03:50:09;;;;;;;16.40;10.20;;;;;;;3.14;86.57;98930.27;105238;1322;22671;-77
2021/12/19 03:52:36;;;;;;;17.90;10.70;;;;;;;3.12;86.70;98924.66;105246;1321;22585;-76
2021/12/19 03:55:04;;;;;;;15.20;9.60;;;;;;;3.11;87.10;98922.27;105273;1322;24371;-77
2021/12/19 03:57:31;;;;;;;14.50;9.40;;;;;;;3.08;87.03;98913.07;105277;1322;23437;-77
2021/12/19 03:59:59;;;;;;;13.40;8.20;;;;;;;3.07;86.75;98906.90;105281;1322;22673;-77
2021/12/19 04:02:29;;;;;;;15.30;10.30;;;;;;;3.05;86.70;98905.09;105258;1322;22780;-76
2021/12/19 04:04:58;;;;;;;16.80;10.70;;;;;;;3.07;86.71;98901.56;105215;1322;22573;-76
2021/12/19 04:07:27;;;;;;;16.60;9.80;;;;;;;3.11;86.80;98900.61;105308;1323;22703;-77
2021/12/19 04:09:54;;;;;;;15.20;9.20;;;;;;;3.11;86.86;98896.14;105247;1322;22652;-78
2021/12/19 04:12:25;;;;;;;14.60;9.10;;;;;;;3.10;87.26;98896.14;105279;1322;22811;-82
2021/12/19 04:14:52;;;;;;;14.30;9.50;;;;;;;3.10;87.08;98899.94;105342;1322;22756;-77
2021/12/19 04:17:19;;;;;;;15.60;9.90;;;;;;;3.07;87.07;98897.63;105273;1323;22622;-77
2021/12/19 04:19:47;;;;;;;18.60;11.30;;;;;;;3.07;86.56;98891.76;105238;1323;22595;-77
2021/12/19 04:22:14;;;;;;;19.30;11.00;;;;;;;3.09;86.92;98880.36;105280;1322;22597;-77
2021/12/19 04:24:41;;;;;;;16.00;10.40;;;;;;;3.11;86.67;98870.67;105248;1320;23911;-77
2021/12/19 04:27:08;;;;;;;19.00;11.70;;;;;;;3.13;87.07;98865.94;105232;1320;22577;-77
2021/12/19 04:29:35;;;;;;;17.30;11.70;;;;;;;3.12;87.04;98862.38;105286;1317;22929;-77
2021/12/19 04:32:02;;;;;;;17.90;10.60;;;;;;;3.10;86.93;98862.61;105299;1323;22586;-78
2021/12/19 04:34:29;;;;;;;11.60;7.00;;;;;;;3.09;86.89;98869.52;105254;1320;23124;-77
2021/12/19 04:37:03;;;;;;;16.50;10.10;;;;;;;3.08;86.55;98868.86;105281;1322;22663;-78
2021/12/19 04:58:00;;;;;;;14.60;8.70;;;;;;;3.21;86.30;98842.79;105257;1323;22727;-77
2021/12/19 05:00:36;;;;;;;13.40;7.80;;;;;;;3.21;86.38;98842.79;105287;1322;25706;-78
2021/12/19 05:03:07;;;;;;;12.60;6.90;;;;;;;3.24;86.79;98842.16;105262;1322;23349;-77
2021/12/19 05:16:27;;;;;;;19.40;13.10;;;;;;;3.30;86.14;98825.13;105228;1322;22585;-77
2021/12/19 05:19:01;;;;;;;22.30;13.90;;;;;;;3.31;86.01;98827.64;105242;1322;22649;-77
2021/12/19 05:21:29;;;;;;;18.70;11.90;;;;;;;3.33;86.30;98816.74;105253;1322;24382;-76
2021/12/19 05:26:23;;;;;;;16.90;11.30;;;;;;;3.29;86.02;98810.50;105241;1320;22845;-76
2021/12/19 05:28:52;;;;;;;15.50;10.20;;;;;;;3.29;85.70;98808.45;105211;1322;22810;-77
2021/12/19 05:31:20;;;;;;;17.10;12.00;;;;;;;3.31;85.52;98812.53;105292;1322;25494;-76
2021/12/19 05:33:47;;;;;;;17.90;11.30;;;;;;;3.35;85.63;98814.96;105304;1322;25363;-76
2021/12/19 05:47:05;;;;;;;15.00;8.40;;;;;;;3.30;84.72;98798.45;105386;1322;22609;-81
2021/12/19 05:49:32;;;;;;;12.60;7.90;;;;;;;3.34;84.60;98804.49;105335;1320;22636;-81
2021/12/19 05:52:00;;;;;;;11.50;6.90;;;;;;;3.37;84.90;98806.48;105366;1321;22677;-80
2021/12/19 05:54:27;;;;;;;14.50;7.90;;;;;;;3.40;85.13;98813.60;105396;1322;24250;-80
2021/12/19 05:56:54;;;;;;;13.50;7.10;;;;;;;3.39;84.72;98812.05;105341;1322;22581;-78
2021/12/19 05:59:22;;;;;;;14.50;6.90;;;;;;;3.40;84.65;98810.47;105351;1322;22553;-75
2021/12/19 06:01:49;;;;;;;13.20;7.70;;;;;;;3.39;84.29;98817.76;105343;1322;22570;-75
2021/12/19 06:04:16;;;;;;;14.70;8.50;;;;;;;3.39;84.08;98817.25;105324;1322;24087;-77
2021/12/19 06:06:46;;;;;;;17.40;8.90;;;;;;;3.45;84.31;98817.58;105371;1322;22666;-75
2021/12/19 06:09:13;;;;;;;17.80;8.30;;;;;;;3.50;84.27;98819.65;105353;1322;22593;-74
2021/12/19 06:11:40;;;;;;;13.70;7.10;;;;;;;3.52;84.49;98821.11;105333;1322;22605;-75
2021/12/19 06:14:08;;;;;;;12.60;7.10;;;;;;;3.52;84.31;98824.70;105338;1321;22572;-77
2021/12/19 06:16:35;;;;;;;11.20;6.60;;;;;;;3.51;84.16;98832.16;105303;1322;22591;-76
2021/12/19 06:19:02;;;;;;;15.40;7.10;;;;;;;3.51;84.02;98829.08;105328;1321;22701;-78
2021/12/19 06:21:29;;;;;;;12.80;7.50;;;;;;;3.53;83.95;98819.89;105354;1322;22580;-82
2021/12/19 06:23:56;;;;;;;15.20;8.20;;;;;;;3.59;84.03;98821.90;105400;1321;22730;-82
2021/12/19 06:26:23;;;;;;;15.30;8.30;;;;;;;3.65;84.15;98823.45;105420;1322;22598;-82
2021/12/19 06:28:50;;;;;;;12.70;7.50;;;;;;;3.69;84.37;98825.52;105378;1319;22648;-79
2021/12/19 06:31:17;;;;;;;16.80;9.10;;;;;;;3.69;84.38;98822.43;105363;1322;22672;-78
2021/12/19 06:33:45;;;;;;;13.90;7.00;;;;;;;3.69;84.34;98804.84;105360;1322;22600;-76
2021/12/19 06:36:12;;;;;;;15.40;7.80;;;;;;;3.70;83.99;98804.46;105312;1321;22705;-78
2021/12/19 06:38:39;;;;;;;14.30;8.40;;;;;;;3.77;83.84;98803.89;105299;1321;22706;-76
2021/12/19 06:41:06;;;;;;;14.40;7.90;;;;;;;3.82;84.07;98798.36;105307;1322;22604;-77
2021/12/19 06:43:33;;;;;;;16.30;8.20;;;;;;;3.88;84.08;98798.48;105316;1322;22591;-76
2021/12/19 06:46:00;;;;;;;13.50;7.30;;;;;;;3.92;84.34;98786.63;105372;1322;22605;-79
2021/12/19 06:48:27;;;;;;;10.00;6.20;;;;;;;3.95;84.38;98781.35;105341;1321;22579;-80
2021/12/19 06:50:55;;;;;;;14.70;7.30;;;;;;;3.95;84.07;98778.41;105355;1322;25342;-78
2021/12/19 06:53:23;;;;;;;11.40;6.20;;;;;;;3.96;83.68;98772.55;105371;1321;22594;-79
2021/12/19 06:55:50;;;;;;;13.00;6.10;;;;;;;3.98;83.62;98765.55;105386;1322;22576;-77
2021/12/19 06:58:17;;;;;;;11.90;6.70;;;;;;;4.04;83.33;98766.02;105344;1321;23400;-76
2021/12/19 07:00:44;;;;;;;13.40;6.10;;;;;;;4.08;83.15;98761.25;105392;1322;22627;-80
2021/12/19 07:03:13;;;;;;;12.70;5.00;;;;;;;4.12;83.47;98758.86;105350;1322;22559;-78
2021/12/19 07:05:41;;;;;;;10.90;5.80;;;;;;;4.11;83.19;98763.03;105145;1318;342983;-78
2021/12/19 07:08:08;;;;;;;11.40;5.40;;;;;;;4.10;82.98;98752.05;105378;1322;22603;-84
2021/12/19 07:10:35;;;;;;;12.00;5.80;;;;;;;4.10;82.87;98747.39;105447;1322;22686;-86
2021/12/19 07:13:03;;;;;;;10.10;5.80;;;;;;;4.13;82.59;98744.84;105394;1321;22699;-80
2021/12/19 07:15:30;;;;;;;12.00;5.50;;;;;;;4.16;82.50;98741.82;105388;1321;22706;-77
2021/12/19 07:18:02;;;;;;;9.20;4.80;;;;;;;4.18;82.84;98744.34;105344;1322;22570;-77
2021/12/19 07:20:30;;;;;;;10.10;5.00;;;;;;;4.19;82.24;98737.59;105422;1321;22598;-78
2021/12/19 07:22:57;;;;;;;11.90;5.60;;;;;;;4.14;82.43;98743.42;105385;1322;22671;-80
2021/12/19 07:25:24;;;;;;;12.70;5.70;;;;;;;4.13;82.05;98741.75;105341;1319;22671;-77
2021/12/19 07:27:52;;;;;;;11.50;6.20;;;;;;;4.16;82.03;98739.05;105324;1322;24962;-87
2021/12/19 07:30:19;;;;;;;11.80;6.30;;;;;;;4.20;81.93;98740.61;105412;1320;22577;-80
2021/12/19 07:32:46;;;;;;;10.10;5.20;;;;;;;4.21;82.24;98742.14;105355;1322;24420;-78
2021/12/19 07:35:14;;;;;;;11.30;5.10;;;;;;;4.21;82.10;98739.75;105404;1322;22599;-77
2021/12/19 07:37:41;;;;;;;10.90;5.20;;;;;;;4.19;81.95;98733.44;105344;1321;22633;-78
2021/12/19 07:40:17;;;;;;;11.20;5.90;;;;;;;4.17;82.07;98737.45;105331;1316;22576;-78
2021/12/19 07:42:45;;;;;;;9.90;6.70;;;;;;;4.15;81.90;98740.98;105400;1319;26161;-80
2021/12/19 07:45:13;;;;;;;11.30;6.60;;;;;;;4.18;82.06;98742.11;105377;1322;22659;-79
2021/12/19 07:47:42;;;;;;;14.00;8.70;;;;;;;4.20;82.43;98740.45;105361;1322;22580;-74
2021/12/19 07:50:12;;;;;;;14.70;7.50;;;;;;;4.21;82.35;98741.98;105358;1321;22700;-77
2021/12/19 07:52:39;;;;;;;14.50;7.70;;;;;;;4.18;82.30;98748.11;105341;1322;22589;-82
2021/12/19 07:55:07;;;;;;;14.10;7.80;;;;;;;4.14;82.25;98748.08;105398;1320;22663;-77
2021/12/19 07:57:35;;;;;;;13.40;6.30;;;;;;;4.13;82.08;98749.50;105360;1322;22730;-79
2021/12/19 08:00:04;;;;;;;15.00;9.10;;;;;;;4.12;82.26;98751.25;105538;1321;22616;-80
2021/12/19 08:02:31;;;;;;;11.50;6.80;;;;;;;4.17;82.44;98751.61;105425;1321;22701;-78
2021/12/19 08:04:58;;;;;;;11.20;7.30;;;;;;;4.17;82.76;98755.40;105394;1321;22686;-79
2021/12/19 08:07:26;;;;;;;14.10;7.30;;;;;;;4.15;83.15;98755.65;105400;1321;22563;-79
2021/12/19 08:12:36;;;;;;;11.70;6.70;;;;;;;4.11;83.10;98753.20;105424;1320;22591;-83
2021/12/19 08:15:05;;;;;;;12.70;6.80;;;;;;;4.09;82.83;98749.14;105340;1322;22595;-77
2021/12/19 08:17:32;;;;;;;13.30;7.50;;;;;;;4.11;82.74;98750.63;105390;1320;22647;-87
2021/12/19 08:20:00;;;;;;;20.70;11.20;;;;;;;4.15;82.92;98750.30;105426;1322;22661;-79
2021/12/19 08:22:29;;;;;;;17.40;10.20;;;;;;;4.19;83.43;98748.09;105439;1321;22581;-80
2021/12/19 08:24:57;;;;;;;20.60;10.40;;;;;;;4.22;83.46;98747.63;105366;1314;22588;-78
2021/12/19 08:27:26;;;;;;;17.20;9.70;;;;;;;4.24;83.94;98744.96;105370;1321;23466;-78
2021/12/19 08:29:54;;;;;;;20.40;10.10;;;;;;;4.21;83.99;98744.55;105346;1321;22671;-77
2021/12/19 08:32:23;;;;;;;24.50;12.40;;;;;;;4.22;83.58;98743.98;105362;1320;22769;-77
2021/12/19 08:34:50;;;;;;;19.00;10.00;;;;;;;4.23;83.79;98741.91;105500;1322;22802;-77
2021/12/19 08:37:18;;;;;;;22.00;11.10;;;;;;;4.27;83.83;98741.05;105621;1321;22671;-78
2021/12/19 08:39:46;;;;;;;26.50;12.90;;;;;;;4.32;83.91;98729.47;105579;1320;22587;-78
2021/12/19 08:42:14;;;;;;;24.60;11.70;;;;;;;4.36;83.93;98732.61;105548;1322;22685;-78
2021/12/19 08:44:41;;;;;;;21.10;11.10;;;;;;;4.35;84.32;98730.73;105540;1322;22584;-80
2021/12/19 08:47:10;;;;;;;22.20;11.00;;;;;;;4.34;84.12;98726.83;105504;1322;22724;-78
2021/12/19 08:49:39;;;;;;;16.20;9.80;;;;;;;4.31;83.83;98727.26;105499;1322;22542;-78
2021/12/19 08:52:08;;;;;;;12.90;7.20;;;;;;;4.31;83.76;98722.43;105512;1320;22591;-77
2021/12/19 08:54:35;;;;;;;15.10;7.90;;;;;;;4.29;84.31;98726.14;105528;1322;22583;-86
2021/12/19 08:57:03;;;;;;;17.00;8.00;;;;;;;4.32;84.22;98732.07;105532;1322;22802;-79
2021/12/19 08:59:31;;;;;;;18.50;9.30;;;;;;;4.28;84.42;98725.66;105554;1322;22597;-78
2021/12/19 09:02:00;;;;;;;22.40;12.00;;;;;;;4.26;84.57;98727.13;105536;1322;22663;-79
2021/12/19 09:04:29;;;;;;;24.70;12.80;;;;;;;4.25;84.29;98726.13;105439;1322;22581;-79
2021/12/19 09:06:58;;;;;;;20.90;11.60;;;;;;;4.26;84.55;98725.22;105476;1322;22612;-80
2021/12/19 09:09:25;;;;;;;19.60;11.10;;;;;;;4.31;84.17;98724.16;105503;1322;22579;-83
2021/12/19 09:11:52;;;;;;;20.20;11.30;;;;;;;4.33;84.36;98716.67;105523;1319;26568;-77
2021/12/19 09:14:19;;;;;;;16.60;9.00;;;;;;;4.36;84.53;98720.53;105522;1321;22651;-79
2021/12/19 09:16:46;;;;;;;16.80;8.50;;;;;;;4.33;84.79;98722.02;105524;1322;22589;-80
2021/12/19 09:19:14;;;;;;;18.80;9.90;;;;;;;4.32;84.85;98716.19;105522;1320;25393;-77
2021/12/19 09:21:41;;;;;;;15.00;8.60;;;;;;;4.30;84.54;98720.43;105555;1321;22662;-76
2021/12/19 09:24:09;;;;;;;17.40;8.90;;;;;;;4.30;84.66;98718.20;105544;1322;22605;-76
2021/12/19 09:26:37;;;;;;;15.90;8.40;;;;;;;4.35;84.89;98715.07;105505;1321;22677;-76
2021/12/19 09:29:04;;;;;;;15.80;7.00;;;;;;;4.38;84.99;98713.55;105537;1322;22694;-77
2021/12/19 09:31:31;;;;;;;10.70;6.10;;;;;;;4.39;84.72;98708.84;105547;1321;22672;-77
2021/12/19 09:33:58;;;;;;;12.60;7.70;;;;;;;4.40;84.64;98707.46;105492;1322;22603;-77
2021/12/19 09:36:26;;;;;;;19.90;8.80;;;;;;;4.35;85.04;98706.79;105508;1321;22621;-77
2021/12/19 09:38:53;;;;;;;14.40;8.20;;;;;;;4.38;84.67;98703.92;105440;1321;22594;-78
2021/12/19 09:41:30;;;;;;;19.00;8.70;;;;;;;4.44;84.53;98696.27;105277;1322;22737;-78
2021/12/19 09:44:02;;;;;;;19.80;9.90;;;;;;;4.48;84.99;98691.80;105303;1322;22651;-77
2021/12/19 09:46:38;;;;;;;15.60;8.20;;;;;;;4.49;85.09;98687.42;105233;1319;22688;-77
2021/12/19 09:49:07;;;;;;;12.60;7.00;;;;;;;4.49;85.26;98683.96;105288;1319;24175;-77
2021/12/19 09:51:35;;;;;;;13.90;7.10;;;;;;;4.46;84.81;98683.91;105305;1322;22549;-79
2021/12/19 09:54:03;;;;;;;11.80;5.60;;;;;;;4.46;84.70;98682.88;105254;1322;24385;-78
2021/12/19 09:56:33;;;;;;;12.90;5.60;;;;;;;4.48;84.55;98685.21;105282;1319;22582;-77
2021/12/19 09:59:09;;;;;;;10.90;5.50;;;;;;;4.44;85.15;98684.01;105328;1317;24215;-77
2021/12/19 10:01:36;;;;;;;11.00;5.00;;;;;;;4.46;84.84;98676.69;105292;1321;26708;-77
2021/12/19 10:04:05;;;;;;;11.00;6.20;;;;;;;4.40;85.05;98676.92;105427;1320;22580;-78
2021/12/19 10:06:32;;;;;;;12.50;6.60;;;;;;;4.35;85.07;98673.02;105325;1321;22675;-78
2021/12/19 10:09:12;;;;;;;11.60;6.30;;;;;;;4.31;85.28;98670.89;105433;1322;22704;-77
2021/12/19 10:11:57;;;;;;;16.90;7.00;;;;;;;4.29;84.87;98668.76;105313;1321;25381;-76
2021/12/19 10:14:33;;;;;;;17.30;8.70;;;;;;;4.26;85.10;98660.05;105325;1321;22651;-77
2021/12/19 10:17:03;;;;;;;11.70;6.80;;;;;;;4.32;85.11;98659.16;105276;1322;23599;-84
2021/12/19 10:19:46;;;;;;;15.30;7.20;;;;;;;4.35;84.94;98655.04;105123;1317;22619;-76
2021/12/19 10:22:24;;;;;;;13.20;6.60;;;;;;;4.37;85.39;98643.75;105237;1321;22707;-76
2021/12/19 10:24:53;;;;;;;14.20;6.50;;;;;;;4.42;85.56;98645.61;105246;1321;22663;-76
2021/12/19 10:27:36;;;;;;;11.60;6.00;;;;;;;4.40;85.31;98645.38;105293;1317;22601;-77
2021/12/19 10:30:17;;;;;;;9.60;5.10;;;;;;;4.40;85.06;98642.44;105370;1315;22519;-78
2021/12/19 10:33:05;;;;;;;10.00;4.20;;;;;;;4.41;84.87;98628.59;105520;1322;22573;-78
2021/12/19 10:35:43;;;;;;;9.20;4.80;;;;;;;4.46;84.77;98622.90;105513;1322;22660;-78
2021/12/19 10:38:16;;;;;;;9.40;4.30;;;;;;;4.50;84.83;98621.84;105518;1321;22635;-77
2021/12/19 10:40:49;;;;;;;8.70;3.40;;;;;;;4.47;84.91;98616.13;105530;1322;22866;-78
2021/12/19 10:43:17;;;;;;;8.20;3.00;;;;;;;4.42;84.66;98616.31;105522;1315;24270;-79
2021/12/19 10:45:54;;;;;;;9.00;4.50;;;;;;;4.43;84.42;98616.10;105549;1322;22681;-77
2021/12/19 10:48:25;;;;;;;9.40;3.90;;;;;;;4.37;84.74;98603.76;105556;1322;26753;-78
2021/12/19 10:51:15;;;;;;;6.50;3.70;;;;;;;4.41;84.55;98596.52;105517;1321;22602;-77
2021/12/19 10:53:57;;;;;;;9.00;4.40;;;;;;;4.41;84.98;98590.99;105512;1322;22578;-78
2021/12/19 10:56:31;;;;;;;8.90;4.30;;;;;;;4.40;85.09;98584.31;105509;1322;22591;-78
2021/12/19 10:59:07;;;;;;;7.20;3.80;;;;;;;4.36;85.01;98581.20;105536;1317;22574;-78
2021/12/19 11:01:51;;;;;;;9.10;4.70;;;;;;;4.34;84.91;98581.80;105414;1322;22586;-78
2021/12/19 11:04:23;;;;;;;10.70;5.20;;;;;;;4.28;84.75;98572.94;105527;1320;22651;-77
2021/12/19 11:06:59;;;;;;;10.20;5.40;;;;;;;4.32;84.71;98570.35;105492;1322;22593;-77
2021/12/19 11:09:32;;;;;;;12.20;7.00;;;;;;;4.31;85.27;98569.69;105490;1322;25282;-77
2021/12/19 11:12:06;;;;;;;;;;;;;;;4.34;85.52;98565.12;105538;1319;22708;-77
2021/12/19 11:14:37;;;;;;;11.90;5.60;;;;;;;4.34;85.47;98563.04;105529;1322;22584;-77
2021/12/19 11:17:23;;;;;;;9.00;5.10;;;;;;;4.32;85.29;98560.86;105519;1320;22688;-78
2021/12/19 11:19:55;;;;;;;9.20;5.00;;;;;;;4.29;85.01;98559.65;105525;1323;22677;-78
2021/12/19 11:22:26;;;;;;;11.20;5.90;;;;;;;4.28;84.98;98552.76;105517;1317;22801;-78
2021/12/19 11:24:56;;;;;;;10.80;5.50;;;;;;;4.28;85.00;98552.08;105517;1322;25427;-78
2021/12/19 11:27:23;;;;;;;10.20;5.40;;;;;;;4.28;85.29;98549.48;105530;1322;22591;-79
2021/12/19 11:29:52;;;;;;;11.70;5.20;;;;;;;4.28;85.76;98543.80;105490;1319;22720;-78
2021/12/19 11:32:24;;;;;;;16.70;6.60;;;;;;;4.30;85.69;98539.55;105541;1319;22591;-79
2021/12/19 11:34:59;;;;;;;12.30;5.40;;;;;;;4.30;85.67;98537.35;105525;1323;22587;-78
2021/12/19 11:37:39;;;;;;;14.60;6.70;;;;;;;4.28;85.34;98534.16;105513;1319;22643;-80
2021/12/19 11:40:09;;;;;;;11.60;6.70;;;;;;;4.29;85.01;98528.26;105497;1322;22656;-79
2021/12/19 11:42:41;;;;;;;13.70;6.60;;;;;;;4.31;85.21;98529.18;105484;1322;22655;-78
2021/12/19 11:45:30;;;;;;;13.80;6.90;;;;;;;4.32;85.53;98526.91;105485;1323;22665;-83
2021/12/19 11:48:09;;;;;;;14.80;7.10;;;;;;;4.36;85.53;98528.48;105469;1322;22614;-81
2021/12/19 11:50:50;;;;;;;11.20;4.90;;;;;;;4.35;85.52;98523.33;105508;1322;22591;-79
2021/12/19 11:53:17;;;;;;;9.10;4.60;;;;;;;4.34;85.24;98519.41;105504;1322;22607;-76
2021/12/19 11:55:49;;;;;;;7.50;3.20;;;;;;;4.37;84.92;98517.05;105503;1322;22572;-77
2021/12/19 11:58:27;;;;;;;13.50;4.60;;;;;;;4.35;84.73;98512.83;105489;1322;22560;-77
2021/12/19 12:00:59;;;;;;;9.50;4.00;;;;;;;4.36;85.16;98510.70;105523;1322;22646;-77
2021/12/19 12:03:27;;;;;;;7.60;3.00;;;;;;;4.39;85.01;98504.52;105496;1323;22713;-77
2021/12/19 12:05:57;;;;;;;7.70;3.30;;;;;;;4.38;84.72;98496.98;105520;1322;22657;-79
2021/12/19 12:08:26;;;;;;;9.00;3.70;;;;;;;4.26;84.73;98490.96;105525;1322;22582;-78
2021/12/19 12:10:58;;;;;;;8.80;3.90;;;;;;;4.23;84.66;98485.25;105453;1322;25382;-78
2021/12/19 12:13:40;;;;;;;15.50;7.40;;;;;;;4.17;84.49;98489.27;105520;1319;22590;-77
2021/12/19 12:16:19;;;;;;;15.60;7.40;;;;;;;4.16;84.56;98488.64;105558;1322;22607;-78
2021/12/19 12:41:58;;;;;;;6.60;2.90;;;;;;;3.67;83.93;98451.54;102408;1358;545678;-80
2021/12/19 12:44:26;;;;;;;7.50;2.70;;;;;;;3.70;84.10;98450.02;104891;1332;22524;-78
2021/12/19 12:46:54;;;;;;;6.80;2.70;;;;;;;3.75;84.53;98446.38;104866;1331;24215;-78
2021/12/19 12:49:28;;;;;;;6.20;2.30;;;;;;;3.81;84.92;98443.71;104884;1330;22580;-80
2021/12/19 12:52:02;;;;;;;4.40;1.70;;;;;;;3.86;85.41;98441.10;104602;1329;22601;-78
2021/12/19 12:54:35;;;;;;;6.10;1.70;;;;;;;3.91;85.52;98442.27;104341;1328;467089;-78
2021/12/19 12:57:08;;;;;;;5.20;2.00;;;;;;;3.88;85.52;98439.11;104947;1329;22596;-78
2021/12/19 12:59:40;;;;;;;6.50;2.50;;;;;;;3.90;85.44;98434.73;105010;1329;22894;-76
2021/12/19 13:02:32;;;;;;;9.30;2.70;;;;;;;3.91;85.25;98430.02;104938;1329;22685;-77